sensor_id;sensor_type;location;lat;lon;timestamp;P1;durP1;ratioP1;P2;durP2;ratioP2
23362;SDS011;11853;48.080;11.960;2024-02-23T00:01:45;0.73;;;0.68;;
23362;SDS011;11853;48.080;11.960;2024-02-23T00:04:11;1.50;;;0.70;;
23362;SDS011;11853;48.080;11.960;2024-02-23T00:06:36;0.70;;;0.70;;
23362;SDS011;11853;48.080;11.960;2024-02-23T00:09:02;0.40;;;0.35;;
23362;SDS011;11853;48.080;11.960;2024-02-23T00:11:28;1.00;;;0.55;;
23362;SDS011;11853;48.080;11.960;2024-02-23T00:13:54;0.47;;;0.47;;
23362;SDS011;11853;48.080;11.960;2024-02-23T00:16:19;0.32;;;0.32;;
23362;SDS011;11853;48.080;11.960;2024-02-23T00:18:45;0.43;;;0.43;;
23362;SDS011;11853;48.080;11.960;2024-02-23T00:21:11;0.30;;;0.30;;
23362;SDS011;11853;48.080;11.960;2024-02-23T00:23:36;0.35;;;0.20;;
23362;SDS011;11853;48.080;11.960;2024-02-23T00:26:02;0.32;;;0.30;;
23362;SDS011;11853;48.080;11.960;2024-02-23T00:28:28;0.20;;;0.20;;
23362;SDS011;11853;48.080;11.960;2024-02-23T00:30:54;0.20;;;0.20;;
23362;SDS011;11853;48.080;11.960;2024-02-23T00:33:30;0.20;;;0.20;;
23362;SDS011;11853;48.080;11.960;2024-02-23T00:35:58;0.50;;;0.20;;
23362;SDS011;11853;48.080;11.960;2024-02-23T00:38:24;0.20;;;0.20;;
23362;SDS011;11853;48.080;11.960;2024-02-23T00:40:50;1.73;;;0.47;;
23362;SDS011;11853;48.080;11.960;2024-02-23T00:43:15;0.10;;;0.10;;
23362;SDS011;11853;48.080;11.960;2024-02-23T00:45:41;0.10;;;0.10;;
23362;SDS011;11853;48.080;11.960;2024-02-23T00:48:06;0.35;;;0.20;;
23362;SDS011;11853;48.080;11.960;2024-02-23T00:50:32;0.17;;;0.17;;
23362;SDS011;11853;48.080;11.960;2024-02-23T00:52:58;0.20;;;0.20;;
23362;SDS011;11853;48.080;11.960;2024-02-23T00:55:23;0.20;;;0.20;;
23362;SDS011;11853;48.080;11.960;2024-02-23T00:57:50;0.10;;;0.10;;
23362;SDS011;11853;48.080;11.960;2024-02-23T01:00:16;0.10;;;0.10;;
23362;SDS011;11853;48.080;11.960;2024-02-23T01:02:41;0.65;;;0.30;;
23362;SDS011;11853;48.080;11.960;2024-02-23T01:05:08;0.10;;;0.10;;
23362;SDS011;11853;48.080;11.960;2024-02-23T01:07:35;0.15;;;0.15;;
23362;SDS011;11853;48.080;11.960;2024-02-23T01:10:01;0.10;;;0.10;;
23362;SDS011;11853;48.080;11.960;2024-02-23T01:12:28;0.20;;;0.20;;
23362;SDS011;11853;48.080;11.960;2024-02-23T01:14:54;0.20;;;0.20;;
23362;SDS011;11853;48.080;11.960;2024-02-23T01:17:19;0.20;;;0.20;;
23362;SDS011;11853;48.080;11.960;2024-02-23T01:19:45;0.20;;;0.20;;
23362;SDS011;11853;48.080;11.960;2024-02-23T01:22:11;0.20;;;0.20;;
23362;SDS011;11853;48.080;11.960;2024-02-23T01:24:36;0.13;;;0.13;;
23362;SDS011;11853;48.080;11.960;2024-02-23T01:27:02;0.35;;;0.20;;
23362;SDS011;11853;48.080;11.960;2024-02-23T01:29:28;0.10;;;0.10;;
23362;SDS011;11853;48.080;11.960;2024-02-23T01:31:54;0.20;;;0.20;;
23362;SDS011;11853;48.080;11.960;2024-02-23T01:34:20;0.20;;;0.20;;
23362;SDS011;11853;48.080;11.960;2024-02-23T01:36:46;0.10;;;0.10;;
23362;SDS011;11853;48.080;11.960;2024-02-23T01:39:12;0.20;;;0.20;;
23362;SDS011;11853;48.080;11.960;2024-02-23T01:41:37;0.32;;;0.30;;
23362;SDS011;11853;48.080;11.960;2024-02-23T01:44:03;0.20;;;0.20;;
23362;SDS011;11853;48.080;11.960;2024-02-23T01:46:29;0.20;;;0.20;;
23362;SDS011;11853;48.080;11.960;2024-02-23T01:48:55;0.20;;;0.20;;
23362;SDS011;11853;48.080;11.960;2024-02-23T01:51:21;0.13;;;0.13;;
23362;SDS011;11853;48.080;11.960;2024-02-23T01:53:47;0.10;;;0.10;;
23362;SDS011;11853;48.080;11.960;2024-02-23T01:56:13;0.20;;;0.20;;
23362;SDS011;11853;48.080;11.960;2024-02-23T01:58:42;1.02;;;0.10;;
23362;SDS011;11853;48.080;11.960;2024-02-23T02:01:09;0.17;;;0.17;;
23362;SDS011;11853;48.080;11.960;2024-02-23T02:03:36;0.35;;;0.10;;
23362;SDS011;11853;48.080;11.960;2024-02-23T02:06:04;0.28;;;0.20;;
23362;SDS011;11853;48.080;11.960;2024-02-23T02:08:35;0.30;;;0.30;;
23362;SDS011;11853;48.080;11.960;2024-02-23T02:11:01;0.20;;;0.20;;
23362;SDS011;11853;48.080;11.960;2024-02-23T02:13:30;0.40;;;0.40;;
23362;SDS011;11853;48.080;11.960;2024-02-23T02:15:58;0.30;;;0.30;;
23362;SDS011;11853;48.080;11.960;2024-02-23T02:18:25;0.05;;;0.05;;
23362;SDS011;11853;48.080;11.960;2024-02-23T02:20:52;0.15;;;0.15;;
23362;SDS011;11853;48.080;11.960;2024-02-23T02:23:20;0.47;;;0.20;;
23362;SDS011;11853;48.080;11.960;2024-02-23T02:25:55;0.10;;;0.10;;
23362;SDS011;11853;48.080;11.960;2024-02-23T02:28:22;0.85;;;0.15;;
23362;SDS011;11853;48.080;11.960;2024-02-23T02:30:49;0.13;;;0.13;;
23362;SDS011;11853;48.080;11.960;2024-02-23T02:33:15;0.10;;;0.10;;
23362;SDS011;11853;48.080;11.960;2024-02-23T02:35:41;0.10;;;0.10;;
23362;SDS011;11853;48.080;11.960;2024-02-23T02:38:07;2.33;;;0.20;;
23362;SDS011;11853;48.080;11.960;2024-02-23T02:40:33;0.15;;;0.15;;
23362;SDS011;11853;48.080;11.960;2024-02-23T02:42:58;0.10;;;0.10;;
23362;SDS011;11853;48.080;11.960;2024-02-23T02:45:24;0.20;;;0.20;;
23362;SDS011;11853;48.080;11.960;2024-02-23T02:47:49;0.10;;;0.10;;
23362;SDS011;11853;48.080;11.960;2024-02-23T02:50:16;0.10;;;0.10;;
23362;SDS011;11853;48.080;11.960;2024-02-23T02:52:41;0.03;;;0.03;;
23362;SDS011;11853;48.080;11.960;2024-02-23T02:55:07;0.17;;;0.15;;
23362;SDS011;11853;48.080;11.960;2024-02-23T02:57:33;0.10;;;0.10;;
23362;SDS011;11853;48.080;11.960;2024-02-23T03:00:01;0.20;;;0.20;;
23362;SDS011;11853;48.080;11.960;2024-02-23T03:02:30;0.20;;;0.20;;
23362;SDS011;11853;48.080;11.960;2024-02-23T03:04:56;0.10;;;0.10;;
23362;SDS011;11853;48.080;11.960;2024-02-23T03:07:22;0.10;;;0.10;;
23362;SDS011;11853;48.080;11.960;2024-02-23T03:09:47;0.10;;;0.10;;
23362;SDS011;11853;48.080;11.960;2024-02-23T03:12:16;0.20;;;0.20;;
23362;SDS011;11853;48.080;11.960;2024-02-23T03:14:42;0.10;;;0.10;;
23362;SDS011;11853;48.080;11.960;2024-02-23T03:17:09;0.10;;;0.10;;
23362;SDS011;11853;48.080;11.960;2024-02-23T03:19:35;0.20;;;0.20;;
23362;SDS011;11853;48.080;11.960;2024-02-23T03:22:01;0.20;;;0.20;;
23362;SDS011;11853;48.080;11.960;2024-02-23T03:24:27;0.22;;;0.20;;
23362;SDS011;11853;48.080;11.960;2024-02-23T03:26:52;0.20;;;0.13;;
23362;SDS011;11853;48.080;11.960;2024-02-23T03:29:18;0.32;;;0.20;;
23362;SDS011;11853;48.080;11.960;2024-02-23T03:31:43;0.30;;;0.30;;
23362;SDS011;11853;48.080;11.960;2024-02-23T03:34:09;0.28;;;0.20;;
23362;SDS011;11853;48.080;11.960;2024-02-23T03:36:36;0.20;;;0.20;;
23362;SDS011;11853;48.080;11.960;2024-02-23T03:39:02;0.35;;;0.20;;
23362;SDS011;11853;48.080;11.960;2024-02-23T03:41:27;0.45;;;0.20;;
23362;SDS011;11853;48.080;11.960;2024-02-23T03:43:53;0.38;;;0.20;;
23362;SDS011;11853;48.080;11.960;2024-02-23T03:46:18;0.20;;;0.20;;
23362;SDS011;11853;48.080;11.960;2024-02-23T03:48:45;0.20;;;0.20;;
23362;SDS011;11853;48.080;11.960;2024-02-23T03:51:11;0.20;;;0.20;;
23362;SDS011;11853;48.080;11.960;2024-02-23T03:53:36;0.17;;;0.17;;
23362;SDS011;11853;48.080;11.960;2024-02-23T03:56:02;0.25;;;0.25;;
23362;SDS011;11853;48.080;11.960;2024-02-23T03:58:28;0.30;;;0.30;;
23362;SDS011;11853;48.080;11.960;2024-02-23T04:00:53;0.20;;;0.20;;
23362;SDS011;11853;48.080;11.960;2024-02-23T04:03:19;0.20;;;0.20;;
23362;SDS011;11853;48.080;11.960;2024-02-23T04:05:45;0.35;;;0.20;;
23362;SDS011;11853;48.080;11.960;2024-02-23T04:08:11;0.20;;;0.20;;
23362;SDS011;11853;48.080;11.960;2024-02-23T04:10:36;0.45;;;0.10;;
23362;SDS011;11853;48.080;11.960;2024-02-23T04:13:02;0.20;;;0.20;;
23362;SDS011;11853;48.080;11.960;2024-02-23T04:15:28;0.20;;;0.20;;
23362;SDS011;11853;48.080;11.960;2024-02-23T04:17:53;0.40;;;0.20;;
23362;SDS011;11853;48.080;11.960;2024-02-23T04:20:19;0.20;;;0.20;;
23362;SDS011;11853;48.080;11.960;2024-02-23T04:22:45;0.20;;;0.20;;
23362;SDS011;11853;48.080;11.960;2024-02-23T04:25:11;0.30;;;0.20;;
23362;SDS011;11853;48.080;11.960;2024-02-23T04:27:37;0.30;;;0.20;;
23362;SDS011;11853;48.080;11.960;2024-02-23T04:30:03;0.20;;;0.20;;
23362;SDS011;11853;48.080;11.960;2024-02-23T04:35:35;0.20;;;0.20;;
23362;SDS011;11853;48.080;11.960;2024-02-23T04:38:01;0.43;;;0.20;;
23362;SDS011;11853;48.080;11.960;2024-02-23T04:40:27;1.25;;;0.20;;
23362;SDS011;11853;48.080;11.960;2024-02-23T04:42:52;0.30;;;0.30;;
23362;SDS011;11853;48.080;11.960;2024-02-23T04:45:18;0.70;;;0.30;;
23362;SDS011;11853;48.080;11.960;2024-02-23T04:47:44;0.32;;;0.30;;
23362;SDS011;11853;48.080;11.960;2024-02-23T04:50:11;0.17;;;0.17;;
23362;SDS011;11853;48.080;11.960;2024-02-23T04:52:37;2.00;;;0.30;;
23362;SDS011;11853;48.080;11.960;2024-02-23T04:55:03;0.20;;;0.20;;
23362;SDS011;11853;48.080;11.960;2024-02-23T04:57:28;0.30;;;0.30;;
23362;SDS011;11853;48.080;11.960;2024-02-23T04:59:54;0.20;;;0.20;;
23362;SDS011;11853;48.080;11.960;2024-02-23T05:02:20;0.65;;;0.25;;
23362;SDS011;11853;48.080;11.960;2024-02-23T05:04:45;0.28;;;0.28;;
23362;SDS011;11853;48.080;11.960;2024-02-23T05:07:11;0.28;;;0.28;;
23362;SDS011;11853;48.080;11.960;2024-02-23T05:09:37;0.45;;;0.30;;
23362;SDS011;11853;48.080;11.960;2024-02-23T05:12:03;0.55;;;0.28;;
23362;SDS011;11853;48.080;11.960;2024-02-23T05:14:28;0.20;;;0.20;;
23362;SDS011;11853;48.080;11.960;2024-02-23T05:16:54;2.05;;;0.30;;
23362;SDS011;11853;48.080;11.960;2024-02-23T05:19:20;0.30;;;0.22;;
23362;SDS011;11853;48.080;11.960;2024-02-23T05:21:45;0.20;;;0.20;;
23362;SDS011;11853;48.080;11.960;2024-02-23T05:24:11;0.80;;;0.30;;
23362;SDS011;11853;48.080;11.960;2024-02-23T05:26:37;1.45;;;0.20;;
23362;SDS011;11853;48.080;11.960;2024-02-23T05:29:02;0.30;;;0.30;;
23362;SDS011;11853;48.080;11.960;2024-02-23T05:31:51;0.20;;;0.20;;
23362;SDS011;11853;48.080;11.960;2024-02-23T05:34:16;0.30;;;0.30;;
23362;SDS011;11853;48.080;11.960;2024-02-23T05:36:42;0.30;;;0.30;;
23362;SDS011;11853;48.080;11.960;2024-02-23T05:39:08;1.00;;;0.30;;
23362;SDS011;11853;48.080;11.960;2024-02-23T05:41:35;0.32;;;0.20;;
23362;SDS011;11853;48.080;11.960;2024-02-23T05:44:02;0.80;;;0.30;;
23362;SDS011;11853;48.080;11.960;2024-02-23T05:46:31;0.20;;;0.20;;
23362;SDS011;11853;48.080;11.960;2024-02-23T05:49:02;0.25;;;0.25;;
23362;SDS011;11853;48.080;11.960;2024-02-23T05:51:31;0.73;;;0.30;;
23362;SDS011;11853;48.080;11.960;2024-02-23T05:53:57;0.88;;;0.30;;
23362;SDS011;11853;48.080;11.960;2024-02-23T05:56:23;0.60;;;0.60;;
23362;SDS011;11853;48.080;11.960;2024-02-23T05:58:50;0.60;;;0.60;;
23362;SDS011;11853;48.080;11.960;2024-02-23T06:01:17;0.40;;;0.40;;
23362;SDS011;11853;48.080;11.960;2024-02-23T06:03:43;0.70;;;0.60;;
23362;SDS011;11853;48.080;11.960;2024-02-23T06:06:09;0.30;;;0.30;;
23362;SDS011;11853;48.080;11.960;2024-02-23T06:08:36;0.90;;;0.50;;
23362;SDS011;11853;48.080;11.960;2024-02-23T06:11:01;0.70;;;0.70;;
23362;SDS011;11853;48.080;11.960;2024-02-23T06:13:29;1.27;;;1.27;;
23362;SDS011;11853;48.080;11.960;2024-02-23T06:15:55;0.80;;;0.80;;
23362;SDS011;11853;48.080;11.960;2024-02-23T06:18:20;0.50;;;0.50;;
23362;SDS011;11853;48.080;11.960;2024-02-23T06:20:46;0.65;;;0.65;;
23362;SDS011;11853;48.080;11.960;2024-02-23T06:23:12;0.60;;;0.60;;
23362;SDS011;11853;48.080;11.960;2024-02-23T06:25:38;0.57;;;0.50;;
23362;SDS011;11853;48.080;11.960;2024-02-23T06:28:04;0.65;;;0.45;;
23362;SDS011;11853;48.080;11.960;2024-02-23T06:30:31;0.73;;;0.73;;
23362;SDS011;11853;48.080;11.960;2024-02-23T06:32:57;1.35;;;0.85;;
23362;SDS011;11853;48.080;11.960;2024-02-23T06:35:23;2.78;;;1.98;;
23362;SDS011;11853;48.080;11.960;2024-02-23T06:37:48;3.25;;;1.70;;
23362;SDS011;11853;48.080;11.960;2024-02-23T06:40:14;2.45;;;1.95;;
23362;SDS011;11853;48.080;11.960;2024-02-23T06:42:40;1.15;;;1.05;;
23362;SDS011;11853;48.080;11.960;2024-02-23T06:45:05;2.92;;;1.10;;
23362;SDS011;11853;48.080;11.960;2024-02-23T06:47:32;0.95;;;0.80;;
23362;SDS011;11853;48.080;11.960;2024-02-23T06:49:59;1.52;;;1.05;;
23362;SDS011;11853;48.080;11.960;2024-02-23T06:52:24;2.58;;;1.30;;
23362;SDS011;11853;48.080;11.960;2024-02-23T06:54:51;0.77;;;0.77;;
23362;SDS011;11853;48.080;11.960;2024-02-23T06:57:17;0.82;;;0.80;;
23362;SDS011;11853;48.080;11.960;2024-02-23T06:59:42;0.73;;;0.70;;
23362;SDS011;11853;48.080;11.960;2024-02-23T07:02:08;0.77;;;0.75;;
23362;SDS011;11853;48.080;11.960;2024-02-23T07:04:34;0.88;;;0.82;;
23362;SDS011;11853;48.080;11.960;2024-02-23T07:06:59;1.10;;;0.63;;
23362;SDS011;11853;48.080;11.960;2024-02-23T07:09:31;0.95;;;0.95;;
23362;SDS011;11853;48.080;11.960;2024-02-23T07:11:57;1.55;;;0.60;;
23362;SDS011;11853;48.080;11.960;2024-02-23T07:14:22;0.90;;;0.60;;
23362;SDS011;11853;48.080;11.960;2024-02-23T07:16:48;1.10;;;1.10;;
23362;SDS011;11853;48.080;11.960;2024-02-23T07:19:14;0.80;;;0.68;;
23362;SDS011;11853;48.080;11.960;2024-02-23T07:21:39;0.85;;;0.70;;
23362;SDS011;11853;48.080;11.960;2024-02-23T07:24:05;2.30;;;0.60;;
23362;SDS011;11853;48.080;11.960;2024-02-23T07:26:31;0.60;;;0.60;;
23362;SDS011;11853;48.080;11.960;2024-02-23T07:28:57;3.05;;;1.33;;
23362;SDS011;11853;48.080;11.960;2024-02-23T07:31:23;1.45;;;1.35;;
23362;SDS011;11853;48.080;11.960;2024-02-23T07:33:48;0.68;;;0.68;;
23362;SDS011;11853;48.080;11.960;2024-02-23T07:36:14;1.02;;;0.80;;
23362;SDS011;11853;48.080;11.960;2024-02-23T07:38:40;1.85;;;0.70;;
23362;SDS011;11853;48.080;11.960;2024-02-23T07:41:06;0.60;;;0.60;;
23362;SDS011;11853;48.080;11.960;2024-02-23T07:43:32;1.10;;;0.80;;
23362;SDS011;11853;48.080;11.960;2024-02-23T07:45:58;1.80;;;0.93;;
23362;SDS011;11853;48.080;11.960;2024-02-23T07:48:23;1.05;;;0.90;;
23362;SDS011;11853;48.080;11.960;2024-02-23T07:50:49;1.13;;;0.73;;
23362;SDS011;11853;48.080;11.960;2024-02-23T07:53:14;3.33;;;1.50;;
23362;SDS011;11853;48.080;11.960;2024-02-23T07:55:40;3.05;;;1.40;;
23362;SDS011;11853;48.080;11.960;2024-02-23T07:58:06;1.80;;;0.85;;
23362;SDS011;11853;48.080;11.960;2024-02-23T08:00:31;1.08;;;0.70;;
23362;SDS011;11853;48.080;11.960;2024-02-23T08:02:59;2.33;;;0.93;;
23362;SDS011;11853;48.080;11.960;2024-02-23T08:05:25;1.40;;;1.23;;
23362;SDS011;11853;48.080;11.960;2024-02-23T08:07:50;1.83;;;1.70;;
23362;SDS011;11853;48.080;11.960;2024-02-23T08:10:16;1.00;;;0.80;;
23362;SDS011;11853;48.080;11.960;2024-02-23T08:12:42;0.85;;;0.65;;
23362;SDS011;11853;48.080;11.960;2024-02-23T08:15:07;0.57;;;0.50;;
23362;SDS011;11853;48.080;11.960;2024-02-23T08:17:33;0.98;;;0.60;;
23362;SDS011;11853;48.080;11.960;2024-02-23T08:19:59;1.98;;;1.10;;
23362;SDS011;11853;48.080;11.960;2024-02-23T08:22:25;2.72;;;0.73;;
23362;SDS011;11853;48.080;11.960;2024-02-23T08:24:50;0.98;;;0.73;;
23362;SDS011;11853;48.080;11.960;2024-02-23T08:27:16;1.20;;;0.90;;
23362;SDS011;11853;48.080;11.960;2024-02-23T08:29:42;1.73;;;0.90;;
23362;SDS011;11853;48.080;11.960;2024-02-23T08:32:07;1.17;;;1.00;;
23362;SDS011;11853;48.080;11.960;2024-02-23T08:34:33;0.98;;;0.63;;
23362;SDS011;11853;48.080;11.960;2024-02-23T08:36:59;1.40;;;0.70;;
23362;SDS011;11853;48.080;11.960;2024-02-23T08:39:26;1.95;;;0.80;;
23362;SDS011;11853;48.080;11.960;2024-02-23T08:41:52;1.05;;;0.60;;
23362;SDS011;11853;48.080;11.960;2024-02-23T08:44:18;1.13;;;0.80;;
23362;SDS011;11853;48.080;11.960;2024-02-23T08:46:44;1.35;;;0.80;;
23362;SDS011;11853;48.080;11.960;2024-02-23T08:49:09;2.92;;;0.82;;
23362;SDS011;11853;48.080;11.960;2024-02-23T08:51:35;2.83;;;1.00;;
23362;SDS011;11853;48.080;11.960;2024-02-23T08:54:01;1.45;;;0.90;;
23362;SDS011;11853;48.080;11.960;2024-02-23T08:56:29;1.17;;;0.95;;
23362;SDS011;11853;48.080;11.960;2024-02-23T08:58:58;2.10;;;1.27;;
23362;SDS011;11853;48.080;11.960;2024-02-23T09:01:23;1.58;;;1.42;;
23362;SDS011;11853;48.080;11.960;2024-02-23T09:03:49;2.85;;;1.23;;
23362;SDS011;11853;48.080;11.960;2024-02-23T09:06:15;2.22;;;1.20;;
23362;SDS011;11853;48.080;11.960;2024-02-23T09:08:40;1.63;;;0.88;;
23362;SDS011;11853;48.080;11.960;2024-02-23T09:11:06;1.08;;;0.98;;
23362;SDS011;11853;48.080;11.960;2024-02-23T09:13:32;0.75;;;0.75;;
23362;SDS011;11853;48.080;11.960;2024-02-23T09:15:57;1.10;;;0.65;;
23362;SDS011;11853;48.080;11.960;2024-02-23T09:18:23;1.13;;;0.80;;
23362;SDS011;11853;48.080;11.960;2024-02-23T09:20:48;2.38;;;1.17;;
23362;SDS011;11853;48.080;11.960;2024-02-23T09:23:14;3.15;;;1.45;;
23362;SDS011;11853;48.080;11.960;2024-02-23T09:25:40;4.25;;;0.98;;
23362;SDS011;11853;48.080;11.960;2024-02-23T09:28:06;3.90;;;1.10;;
23362;SDS011;11853;48.080;11.960;2024-02-23T09:30:32;2.17;;;1.50;;
23362;SDS011;11853;48.080;11.960;2024-02-23T09:32:58;1.38;;;1.00;;
23362;SDS011;11853;48.080;11.960;2024-02-23T09:35:23;1.15;;;1.00;;
23362;SDS011;11853;48.080;11.960;2024-02-23T09:37:49;1.13;;;0.93;;
23362;SDS011;11853;48.080;11.960;2024-02-23T09:40:14;2.63;;;1.30;;
23362;SDS011;11853;48.080;11.960;2024-02-23T09:42:41;2.08;;;1.00;;
23362;SDS011;11853;48.080;11.960;2024-02-23T09:45:07;2.88;;;1.90;;
23362;SDS011;11853;48.080;11.960;2024-02-23T09:47:36;2.85;;;1.10;;
23362;SDS011;11853;48.080;11.960;2024-02-23T09:50:03;0.90;;;0.90;;
23362;SDS011;11853;48.080;11.960;2024-02-23T09:52:29;2.13;;;1.00;;
23362;SDS011;11853;48.080;11.960;2024-02-23T09:54:56;1.85;;;1.08;;
23362;SDS011;11853;48.080;11.960;2024-02-23T09:57:22;3.42;;;1.02;;
23362;SDS011;11853;48.080;11.960;2024-02-23T09:59:48;2.05;;;0.80;;
23362;SDS011;11853;48.080;11.960;2024-02-23T10:02:15;0.80;;;0.57;;
23362;SDS011;11853;48.080;11.960;2024-02-23T10:04:42;0.65;;;0.60;;
23362;SDS011;11853;48.080;11.960;2024-02-23T10:07:09;0.73;;;0.70;;
23362;SDS011;11853;48.080;11.960;2024-02-23T10:09:34;1.48;;;0.45;;
23362;SDS011;11853;48.080;11.960;2024-02-23T10:12:01;0.30;;;0.30;;
23362;SDS011;11853;48.080;11.960;2024-02-23T10:14:27;2.05;;;0.50;;
23362;SDS011;11853;48.080;11.960;2024-02-23T10:16:53;0.38;;;0.38;;
23362;SDS011;11853;48.080;11.960;2024-02-23T10:19:20;1.48;;;0.60;;
23362;SDS011;11853;48.080;11.960;2024-02-23T10:21:46;1.38;;;0.70;;
23362;SDS011;11853;48.080;11.960;2024-02-23T10:24:12;1.25;;;0.63;;
23362;SDS011;11853;48.080;11.960;2024-02-23T10:26:38;1.00;;;0.70;;
23362;SDS011;11853;48.080;11.960;2024-02-23T10:29:03;1.00;;;0.80;;
23362;SDS011;11853;48.080;11.960;2024-02-23T10:31:34;0.65;;;0.65;;
23362;SDS011;11853;48.080;11.960;2024-02-23T10:34:08;1.40;;;0.73;;
23362;SDS011;11853;48.080;11.960;2024-02-23T10:36:39;2.80;;;1.10;;
23362;SDS011;11853;48.080;11.960;2024-02-23T10:39:06;1.02;;;0.75;;
23362;SDS011;11853;48.080;11.960;2024-02-23T10:41:34;1.40;;;1.30;;
23362;SDS011;11853;48.080;11.960;2024-02-23T10:44:04;0.90;;;0.90;;
23362;SDS011;11853;48.080;11.960;2024-02-23T10:46:31;4.97;;;1.38;;
23362;SDS011;11853;48.080;11.960;2024-02-23T10:48:58;1.88;;;0.80;;
23362;SDS011;11853;48.080;11.960;2024-02-23T10:51:26;2.63;;;1.23;;
23362;SDS011;11853;48.080;11.960;2024-02-23T10:53:53;1.80;;;1.13;;
23362;SDS011;11853;48.080;11.960;2024-02-23T10:56:20;1.10;;;1.00;;
23362;SDS011;11853;48.080;11.960;2024-02-23T10:58:47;1.15;;;0.60;;
23362;SDS011;11853;48.080;11.960;2024-02-23T11:01:13;2.08;;;0.85;;
23362;SDS011;11853;48.080;11.960;2024-02-23T11:03:41;3.28;;;1.45;;
23362;SDS011;11853;48.080;11.960;2024-02-23T11:06:12;1.02;;;0.98;;
23362;SDS011;11853;48.080;11.960;2024-02-23T11:08:37;2.20;;;1.08;;
23362;SDS011;11853;48.080;11.960;2024-02-23T11:11:10;1.05;;;0.98;;
23362;SDS011;11853;48.080;11.960;2024-02-23T11:13:37;1.45;;;0.68;;
23362;SDS011;11853;48.080;11.960;2024-02-23T11:16:04;1.02;;;0.93;;
23362;SDS011;11853;48.080;11.960;2024-02-23T11:18:31;1.05;;;0.98;;
23362;SDS011;11853;48.080;11.960;2024-02-23T11:21:00;0.57;;;0.57;;
23362;SDS011;11853;48.080;11.960;2024-02-23T11:23:40;2.00;;;0.82;;
23362;SDS011;11853;48.080;11.960;2024-02-23T11:26:12;0.85;;;0.75;;
23362;SDS011;11853;48.080;11.960;2024-02-23T11:28:43;1.60;;;1.10;;
23362;SDS011;11853;48.080;11.960;2024-02-23T11:31:16;1.13;;;1.02;;
23362;SDS011;11853;48.080;11.960;2024-02-23T11:33:54;0.82;;;0.80;;
23362;SDS011;11853;48.080;11.960;2024-02-23T11:36:30;0.88;;;0.70;;
23362;SDS011;11853;48.080;11.960;2024-02-23T11:38:58;1.55;;;1.45;;
23362;SDS011;11853;48.080;11.960;2024-02-23T11:41:25;2.05;;;1.88;;
23362;SDS011;11853;48.080;11.960;2024-02-23T11:43:53;3.30;;;2.63;;
23362;SDS011;11853;48.080;11.960;2024-02-23T11:46:20;1.48;;;1.38;;
23362;SDS011;11853;48.080;11.960;2024-02-23T11:48:47;1.38;;;1.20;;
23362;SDS011;11853;48.080;11.960;2024-02-23T11:51:19;0.93;;;0.93;;
23362;SDS011;11853;48.080;11.960;2024-02-23T11:53:46;2.78;;;1.02;;
23362;SDS011;11853;48.080;11.960;2024-02-23T11:56:12;1.15;;;1.05;;
23362;SDS011;11853;48.080;11.960;2024-02-23T11:58:39;2.72;;;1.58;;
23362;SDS011;11853;48.080;11.960;2024-02-23T12:01:05;1.27;;;1.17;;
23362;SDS011;11853;48.080;11.960;2024-02-23T12:03:32;1.95;;;1.45;;
23362;SDS011;11853;48.080;11.960;2024-02-23T12:05:58;3.03;;;1.70;;
23362;SDS011;11853;48.080;11.960;2024-02-23T12:08:29;2.35;;;1.70;;
23362;SDS011;11853;48.080;11.960;2024-02-23T12:11:06;2.05;;;1.30;;
23362;SDS011;11853;48.080;11.960;2024-02-23T12:13:36;1.30;;;1.20;;
23362;SDS011;11853;48.080;11.960;2024-02-23T12:16:02;1.80;;;1.33;;
23362;SDS011;11853;48.080;11.960;2024-02-23T12:18:28;1.25;;;1.15;;
23362;SDS011;11853;48.080;11.960;2024-02-23T12:21:09;1.63;;;1.05;;
23362;SDS011;11853;48.080;11.960;2024-02-23T12:23:44;1.27;;;1.10;;
23362;SDS011;11853;48.080;11.960;2024-02-23T12:26:12;1.38;;;1.23;;
23362;SDS011;11853;48.080;11.960;2024-02-23T12:28:39;1.50;;;1.08;;
23362;SDS011;11853;48.080;11.960;2024-02-23T12:31:05;0.90;;;0.90;;
23362;SDS011;11853;48.080;11.960;2024-02-23T12:33:31;2.17;;;1.70;;
23362;SDS011;11853;48.080;11.960;2024-02-23T12:35:59;1.35;;;1.10;;
23362;SDS011;11853;48.080;11.960;2024-02-23T12:38:25;0.90;;;0.90;;
23362;SDS011;11853;48.080;11.960;2024-02-23T12:40:51;2.00;;;1.25;;
23362;SDS011;11853;48.080;11.960;2024-02-23T12:43:17;1.35;;;0.77;;
23362;SDS011;11853;48.080;11.960;2024-02-23T12:45:46;1.52;;;1.00;;
23362;SDS011;11853;48.080;11.960;2024-02-23T12:48:21;1.55;;;0.77;;
23362;SDS011;11853;48.080;11.960;2024-02-23T12:50:47;1.48;;;1.20;;
23362;SDS011;11853;48.080;11.960;2024-02-23T12:53:33;1.60;;;1.50;;
23362;SDS011;11853;48.080;11.960;2024-02-23T12:56:06;1.80;;;1.48;;
23362;SDS011;11853;48.080;11.960;2024-02-23T12:58:36;1.42;;;1.00;;
23362;SDS011;11853;48.080;11.960;2024-02-23T13:01:03;2.35;;;1.90;;
23362;SDS011;11853;48.080;11.960;2024-02-23T13:03:29;0.80;;;0.80;;
23362;SDS011;11853;48.080;11.960;2024-02-23T13:05:55;1.83;;;1.50;;
23362;SDS011;11853;48.080;11.960;2024-02-23T13:08:22;3.55;;;2.45;;
23362;SDS011;11853;48.080;11.960;2024-02-23T13:10:48;4.43;;;1.40;;
23362;SDS011;11853;48.080;11.960;2024-02-23T13:13:15;4.00;;;2.55;;
23362;SDS011;11853;48.080;11.960;2024-02-23T13:15:41;1.45;;;1.33;;
23362;SDS011;11853;48.080;11.960;2024-02-23T13:18:07;2.05;;;1.60;;
23362;SDS011;11853;48.080;11.960;2024-02-23T13:20:33;1.77;;;1.52;;
23362;SDS011;11853;48.080;11.960;2024-02-23T13:22:58;3.47;;;1.35;;
23362;SDS011;11853;48.080;11.960;2024-02-23T13:25:24;2.92;;;2.05;;
23362;SDS011;11853;48.080;11.960;2024-02-23T13:27:49;1.80;;;1.45;;
23362;SDS011;11853;48.080;11.960;2024-02-23T13:30:15;2.85;;;2.22;;
23362;SDS011;11853;48.080;11.960;2024-02-23T13:32:41;2.15;;;1.20;;
23362;SDS011;11853;48.080;11.960;2024-02-23T13:35:06;3.55;;;2.70;;
23362;SDS011;11853;48.080;11.960;2024-02-23T13:37:33;2.55;;;1.48;;
23362;SDS011;11853;48.080;11.960;2024-02-23T13:39:59;2.97;;;1.13;;
23362;SDS011;11853;48.080;11.960;2024-02-23T13:42:25;1.92;;;1.75;;
23362;SDS011;11853;48.080;11.960;2024-02-23T13:44:51;1.90;;;1.63;;
23362;SDS011;11853;48.080;11.960;2024-02-23T13:47:17;1.92;;;1.73;;
23362;SDS011;11853;48.080;11.960;2024-02-23T13:49:42;2.38;;;2.00;;
23362;SDS011;11853;48.080;11.960;2024-02-23T13:52:08;2.65;;;2.33;;
23362;SDS011;11853;48.080;11.960;2024-02-23T13:54:34;2.92;;;2.20;;
23362;SDS011;11853;48.080;11.960;2024-02-23T13:56:59;1.77;;;1.63;;
23362;SDS011;11853;48.080;11.960;2024-02-23T13:59:25;1.23;;;1.10;;
23362;SDS011;11853;48.080;11.960;2024-02-23T14:01:51;1.65;;;0.88;;
23362;SDS011;11853;48.080;11.960;2024-02-23T14:04:16;1.17;;;1.10;;
23362;SDS011;11853;48.080;11.960;2024-02-23T14:06:42;3.92;;;1.50;;
23362;SDS011;11853;48.080;11.960;2024-02-23T14:09:08;1.65;;;1.38;;
23362;SDS011;11853;48.080;11.960;2024-02-23T14:11:34;1.65;;;0.95;;
23362;SDS011;11853;48.080;11.960;2024-02-23T14:14:00;1.20;;;1.10;;
23362;SDS011;11853;48.080;11.960;2024-02-23T14:16:28;0.80;;;0.80;;
23362;SDS011;11853;48.080;11.960;2024-02-23T14:18:54;2.25;;;0.90;;
23362;SDS011;11853;48.080;11.960;2024-02-23T14:21:20;1.00;;;0.90;;
23362;SDS011;11853;48.080;11.960;2024-02-23T14:23:47;2.33;;;1.20;;
23362;SDS011;11853;48.080;11.960;2024-02-23T14:26:13;2.35;;;1.33;;
23362;SDS011;11853;48.080;11.960;2024-02-23T14:28:39;1.40;;;0.90;;
23362;SDS011;11853;48.080;11.960;2024-02-23T14:31:05;0.93;;;0.75;;
23362;SDS011;11853;48.080;11.960;2024-02-23T14:33:31;1.10;;;1.00;;